TAF and METAR

METAR for Al Najaf

ORNI 192100Z 03008KT 8000 FEW025CB SCT030 27/14 Q1013 TEMPO - TSSHRA
Report created 19. okt 23:00
wind 8 knots from NNE (030°) visibility 8000 meters some clouds (~25% cover) at 2500 feet of type cumulonimbus scattered clouds (~50% cover) at 3000 feet Temperature 27° with dewpoint at 14° (Humidity 44.89%) Pressure 1013 hPa

TAF for Al Najaf

TAF ORNI 191600Z 1916/2016 VRB03KT 8000 NSC
Report created 19. okt 18:00

between 19. okt 18:00 - 20. okt 18:00

wind 3 knots from various directions visibility 8000 meters No significant clouds.